createdAt,value
2023-09-15T00:01:43.483Z,70.89
2023-09-15T00:04:13.791Z,70.99
2023-09-15T00:06:44.134Z,71.18
2023-09-15T00:09:20.074Z,71.10
2023-09-15T00:11:50.890Z,71.13
2023-09-15T00:14:20.625Z,71.35
2023-09-15T00:16:49.293Z,71.38
2023-09-15T00:19:18.337Z,71.44
2023-09-15T00:21:50.886Z,71.56
2023-09-15T00:24:19.450Z,71.56
2023-09-15T00:26:49.695Z,71.35
2023-09-15T00:29:18.355Z,71.62
2023-09-15T00:31:47.680Z,71.71
2023-09-15T00:34:16.347Z,71.83
2023-09-15T00:36:47.132Z,71.84
2023-09-15T00:39:16.269Z,71.87
2023-09-15T00:41:44.971Z,72.10
2023-09-15T00:44:13.535Z,72.15
2023-09-15T00:46:42.855Z,72.37
2023-09-15T00:49:12.412Z,72.45
2023-09-15T00:51:42.081Z,72.35
2023-09-15T00:54:11.120Z,72.12
2023-09-15T00:56:39.879Z,71.85
2023-09-15T00:59:11.875Z,71.72
2023-09-15T01:01:45.134Z,71.67
2023-09-15T01:04:13.944Z,71.90
2023-09-15T01:06:43.794Z,71.99
2023-09-15T01:09:12.693Z,72.10
2023-09-15T01:11:41.273Z,72.14
2023-09-15T01:14:10.058Z,72.17
2023-09-15T01:16:44.467Z,72.28
2023-09-15T01:19:40.897Z,72.28
2023-09-15T01:22:51.261Z,72.79
2023-09-15T01:25:28.966Z,72.78
2023-09-15T01:28:04.717Z,72.79
2023-09-15T01:30:34.008Z,72.78
2023-09-15T01:33:04.768Z,72.88
2023-09-15T01:35:33.783Z,73.28
2023-09-15T01:38:02.477Z,73.40
2023-09-15T01:40:32.843Z,73.47
2023-09-15T01:43:01.367Z,73.34
2023-09-15T01:45:30.043Z,73.30
2023-09-15T01:47:59.651Z,73.45
2023-09-15T01:50:30.194Z,73.46
2023-09-15T01:52:58.792Z,73.72
2023-09-15T01:55:28.686Z,73.81
2023-09-15T01:57:57.236Z,73.58
2023-09-15T02:00:33.229Z,73.33
2023-09-15T02:03:02.006Z,73.32
2023-09-15T02:05:30.867Z,73.39
2023-09-15T02:07:59.488Z,73.32
2023-09-15T02:10:27.965Z,73.28
2023-09-15T02:12:56.692Z,73.19
2023-09-15T02:15:26.684Z,73.14
2023-09-15T02:17:59.723Z,73.29
2023-09-15T02:20:29.054Z,73.28
2023-09-15T02:22:58.488Z,73.15
2023-09-15T02:25:27.090Z,72.98
2023-09-15T02:27:55.567Z,73.17
2023-09-15T02:30:24.106Z,73.10
2023-09-15T02:32:52.602Z,72.74
2023-09-15T02:35:21.935Z,72.81
2023-09-15T02:37:50.462Z,72.70
2023-09-15T02:40:19.423Z,72.48
2023-09-15T02:42:49.349Z,72.28
2023-09-15T02:45:18.625Z,72.09
2023-09-15T02:47:47.718Z,72.17
2023-09-15T02:50:16.293Z,72.23
2023-09-15T02:52:44.837Z,72.26
2023-09-15T02:55:13.443Z,72.23
2023-09-15T02:57:42.504Z,72.10
2023-09-15T03:00:15.203Z,72.19
2023-09-15T03:02:45.746Z,72.28
2023-09-15T03:05:15.473Z,72.46
2023-09-15T03:07:44.200Z,72.61
2023-09-15T03:10:14.396Z,72.52
2023-09-15T03:12:43.005Z,72.21
2023-09-15T03:15:13.230Z,71.96
2023-09-15T03:17:41.973Z,71.88
2023-09-15T03:20:20.588Z,71.72
2023-09-15T03:22:49.372Z,71.81
2023-09-15T03:25:18.769Z,71.85
2023-09-15T03:27:47.492Z,71.97
2023-09-15T03:30:16.106Z,71.78
2023-09-15T03:32:45.421Z,71.62
2023-09-15T03:35:13.975Z,71.58
2023-09-15T03:37:44.148Z,71.70
2023-09-15T03:40:13.332Z,72.10
2023-09-15T03:42:42.085Z,72.16
2023-09-15T03:45:11.034Z,72.23
2023-09-15T03:47:39.523Z,72.15
2023-09-15T03:50:11.017Z,72.16
2023-09-15T03:52:39.582Z,72.20
2023-09-15T03:55:08.861Z,72.45
2023-09-15T03:57:38.697Z,72.75
2023-09-15T04:00:12.913Z,72.88
2023-09-15T20:08:24.190Z,74.33
2023-09-15T20:12:13.358Z,74.00
2023-09-15T20:16:02.945Z,73.94
2023-09-15T20:19:17.856Z,74.14
2023-09-15T20:21:46.309Z,74.22
2023-09-15T20:24:15.230Z,74.05
2023-09-15T20:26:44.685Z,73.58
2023-09-15T20:29:13.230Z,73.68
2023-09-15T20:31:44.575Z,73.20
2023-09-15T20:34:14.407Z,73.02
2023-09-15T20:36:43.398Z,73.16
2023-09-15T20:39:11.840Z,73.19
2023-09-15T20:41:40.684Z,72.89
2023-09-15T20:44:09.210Z,72.79
2023-09-15T20:46:37.864Z,72.80
2023-09-15T20:49:06.733Z,73.15
2023-09-15T20:51:35.549Z,73.17
2023-09-15T20:54:04.314Z,72.52
2023-09-15T20:56:33.052Z,72.62
2023-09-15T20:59:01.937Z,72.63
2023-09-15T21:01:30.497Z,72.50
2023-09-15T21:04:00.631Z,72.38
2023-09-15T21:06:29.397Z,72.27
2023-09-15T21:08:59.364Z,72.46
2023-09-15T21:11:28.852Z,72.55
2023-09-15T21:13:57.697Z,72.66
2023-09-15T21:16:27.123Z,72.47
2023-09-15T21:18:56.424Z,72.41
2023-09-15T21:21:24.926Z,72.59
2023-09-15T21:23:53.340Z,72.27
2023-09-15T21:26:22.139Z,72.20
2023-09-15T21:28:51.103Z,72.20
2023-09-15T21:31:19.968Z,72.32
2023-09-15T21:33:48.909Z,72.45
2023-09-15T21:36:18.557Z,72.30
2023-09-15T21:38:48.198Z,72.57
2023-09-15T21:41:17.311Z,72.75
2023-09-15T21:43:46.053Z,72.96
2023-09-15T21:46:14.617Z,72.92
2023-09-15T21:48:43.292Z,72.74
2023-09-15T21:51:12.838Z,72.71
2023-09-15T21:53:42.035Z,72.83
2023-09-15T21:56:10.704Z,73.25
2023-09-15T21:58:39.280Z,73.38
2023-09-15T22:01:07.822Z,73.40
2023-09-15T22:03:36.405Z,73.39
2023-09-15T22:06:07.638Z,73.32
2023-09-15T22:08:37.614Z,73.32
2023-09-15T22:11:10.385Z,73.39
2023-09-15T22:13:39.427Z,73.21
2023-09-15T22:16:08.637Z,73.21
2023-09-15T22:18:37.279Z,73.15
2023-09-15T22:21:06.046Z,73.26
2023-09-15T22:23:35.991Z,73.18
2023-09-15T22:26:04.506Z,73.08
2023-09-15T22:28:33.331Z,72.91
2023-09-15T22:31:02.030Z,72.92
2023-09-15T22:33:32.358Z,72.77
2023-09-15T22:36:06.966Z,72.70
2023-09-15T22:38:37.612Z,72.39
2023-09-15T22:43:40.596Z,72.21
2023-09-15T22:46:16.056Z,72.21
2023-09-15T22:48:46.023Z,72.00
2023-09-15T22:51:15.301Z,71.78
2023-09-15T22:53:44.399Z,71.84
2023-09-15T22:56:13.592Z,71.88
2023-09-15T22:58:42.349Z,71.68
2023-09-15T23:01:11.114Z,71.51
2023-09-15T23:03:40.168Z,71.64
2023-09-15T23:06:09.728Z,71.75
2023-09-15T23:08:38.670Z,71.71
2023-09-15T23:11:07.347Z,71.52
2023-09-15T23:13:35.820Z,71.60
2023-09-15T23:16:08.473Z,71.39
2023-09-15T23:18:37.862Z,71.49
2023-09-15T23:21:06.947Z,71.64
2023-09-15T23:23:35.711Z,71.57
2023-09-15T23:26:05.091Z,71.78
2023-09-15T23:28:33.666Z,71.70
2023-09-15T23:31:03.477Z,71.77
2023-09-15T23:33:32.401Z,71.52
2023-09-15T23:36:06.579Z,71.59
2023-09-15T23:38:35.678Z,71.78
2023-09-15T23:41:06.213Z,71.26
2023-09-15T23:43:36.887Z,71.20
2023-09-15T23:46:05.573Z,71.37
2023-09-15T23:48:34.323Z,71.32
2023-09-15T23:51:02.836Z,71.41
2023-09-15T23:53:31.417Z,71.32
2023-09-15T23:56:00.066Z,71.16
2023-09-15T23:58:28.501Z,71.18
